sensor_id;sensor_type;location;lat;lon;timestamp;temperature;humidity
54846;DHT22;53889;50.084;8.646;2022-07-26T00:02:27;24.20;68.80
54846;DHT22;53889;50.084;8.646;2022-07-26T00:17:10;23.70;70.90
54846;DHT22;53889;50.084;8.646;2022-07-26T00:19:38;23.60;71.70
54846;DHT22;53889;50.084;8.646;2022-07-26T00:22:05;25.60;73.30
54846;DHT22;53889;50.084;8.646;2022-07-26T00:27:16;23.30;72.40
54846;DHT22;53889;50.084;8.646;2022-07-26T00:44:35;23.20;73.10
54846;DHT22;53889;50.084;8.646;2022-07-26T00:47:02;23.20;73.50
54846;DHT22;53889;50.084;8.646;2022-07-26T00:49:29;23.10;73.30
54846;DHT22;53889;50.084;8.646;2022-07-26T00:51:58;23.00;73.90
54846;DHT22;53889;50.084;8.646;2022-07-26T00:54:25;23.00;74.30
54846;DHT22;53889;50.084;8.646;2022-07-26T01:04:14;23.10;73.30
54846;DHT22;53889;50.084;8.646;2022-07-26T01:06:41;23.10;73.60
54846;DHT22;53889;50.084;8.646;2022-07-26T01:11:37;23.10;73.00
54846;DHT22;53889;50.084;8.646;2022-07-26T01:14:03;23.00;73.30
54846;DHT22;53889;50.084;8.646;2022-07-26T01:16:30;24.40;73.80
54846;DHT22;53889;50.084;8.646;2022-07-26T01:18:57;23.10;72.80
54846;DHT22;53889;50.084;8.646;2022-07-26T01:21:28;23.20;72.70
54846;DHT22;53889;50.084;8.646;2022-07-26T01:23:55;23.10;72.20
54846;DHT22;53889;50.084;8.646;2022-07-26T01:26:22;23.20;71.90
54846;DHT22;53889;50.084;8.646;2022-07-26T01:31:16;23.20;71.70
54846;DHT22;53889;50.084;8.646;2022-07-26T01:33:43;25.00;73.30
54846;DHT22;53889;50.084;8.646;2022-07-26T01:36:10;23.20;72.40
54846;DHT22;53889;50.084;8.646;2022-07-26T01:38:38;24.10;72.70
54846;DHT22;53889;50.084;8.646;2022-07-26T01:41:05;23.20;72.10
54846;DHT22;53889;50.084;8.646;2022-07-26T01:43:32;23.50;72.10
54846;DHT22;53889;50.084;8.646;2022-07-26T01:45:59;23.20;72.20
54846;DHT22;53889;50.084;8.646;2022-07-26T01:50:53;23.00;71.70
54846;DHT22;53889;50.084;8.646;2022-07-26T01:55:48;23.00;72.10
54846;DHT22;53889;50.084;8.646;2022-07-26T02:00:42;22.90;72.50
54846;DHT22;53889;50.084;8.646;2022-07-26T02:03:09;24.20;73.70
54846;DHT22;53889;50.084;8.646;2022-07-26T02:08:04;22.90;72.70
54846;DHT22;53889;50.084;8.646;2022-07-26T02:13:13;22.70;72.90
54846;DHT22;53889;50.084;8.646;2022-07-26T02:15:40;22.70;73.80
54846;DHT22;53889;50.084;8.646;2022-07-26T02:18:07;22.70;73.80
54846;DHT22;53889;50.084;8.646;2022-07-26T02:20:34;23.20;74.40
54846;DHT22;53889;50.084;8.646;2022-07-26T02:25:28;22.60;73.10
54846;DHT22;53889;50.084;8.646;2022-07-26T02:27:55;22.60;73.40
54846;DHT22;53889;50.084;8.646;2022-07-26T02:35:18;22.50;73.00
54846;DHT22;53889;50.084;8.646;2022-07-26T02:37:45;22.60;73.60
54846;DHT22;53889;50.084;8.646;2022-07-26T02:45:07;22.60;74.30
54846;DHT22;53889;50.084;8.646;2022-07-26T02:47:44;22.60;75.00
54846;DHT22;53889;50.084;8.646;2022-07-26T02:50:11;22.60;74.90
54846;DHT22;53889;50.084;8.646;2022-07-26T02:52:38;22.50;75.30
54846;DHT22;53889;50.084;8.646;2022-07-26T02:55:06;22.50;76.00
54846;DHT22;53889;50.084;8.646;2022-07-26T03:02:27;22.20;76.40
54846;DHT22;53889;50.084;8.646;2022-07-26T03:12:17;22.10;77.40
54846;DHT22;53889;50.084;8.646;2022-07-26T03:14:43;22.00;77.60
54846;DHT22;53889;50.084;8.646;2022-07-26T03:17:10;22.40;78.20
54846;DHT22;53889;50.084;8.646;2022-07-26T03:19:37;22.30;78.20
54846;DHT22;53889;50.084;8.646;2022-07-26T03:22:05;22.00;77.90
54846;DHT22;53889;50.084;8.646;2022-07-26T03:24:32;23.10;78.50
54846;DHT22;53889;50.084;8.646;2022-07-26T03:29:26;21.90;78.00
54846;DHT22;53889;50.084;8.646;2022-07-26T03:31:53;21.70;78.80
54846;DHT22;53889;50.084;8.646;2022-07-26T03:36:47;21.60;78.80
54846;DHT22;53889;50.084;8.646;2022-07-26T03:39:15;21.60;79.40
54846;DHT22;53889;50.084;8.646;2022-07-26T03:41:42;22.00;79.40
54846;DHT22;53889;50.084;8.646;2022-07-26T03:44:08;21.70;79.40
54846;DHT22;53889;50.084;8.646;2022-07-26T03:46:35;22.70;79.60
54846;DHT22;53889;50.084;8.646;2022-07-26T03:49:02;21.70;79.00
54846;DHT22;53889;50.084;8.646;2022-07-26T03:51:29;21.60;79.10
54846;DHT22;53889;50.084;8.646;2022-07-26T03:53:58;21.80;79.80
54846;DHT22;53889;50.084;8.646;2022-07-26T03:56:26;21.50;79.40
54846;DHT22;53889;50.084;8.646;2022-07-26T03:59:00;21.50;79.50
54846;DHT22;53889;50.084;8.646;2022-07-26T04:01:28;21.50;79.70
54846;DHT22;53889;50.084;8.646;2022-07-26T04:03:56;21.40;79.90
54846;DHT22;53889;50.084;8.646;2022-07-26T04:06:23;21.30;80.10
54846;DHT22;53889;50.084;8.646;2022-07-26T04:08:49;21.40;79.80
54846;DHT22;53889;50.084;8.646;2022-07-26T04:11:16;21.30;78.80
54846;DHT22;53889;50.084;8.646;2022-07-26T04:13:45;21.30;78.80
54846;DHT22;53889;50.084;8.646;2022-07-26T04:16:11;21.20;79.30
54846;DHT22;53889;50.084;8.646;2022-07-26T04:18:38;21.70;80.20
54846;DHT22;53889;50.084;8.646;2022-07-26T04:21:07;21.10;79.40
54846;DHT22;53889;50.084;8.646;2022-07-26T04:23:34;21.20;80.10
54846;DHT22;53889;50.084;8.646;2022-07-26T04:26:00;21.20;79.20
54846;DHT22;53889;50.084;8.646;2022-07-26T04:28:27;21.20;78.70
54846;DHT22;53889;50.084;8.646;2022-07-26T04:30:55;21.30;78.40
54846;DHT22;53889;50.084;8.646;2022-07-26T04:35:50;21.60;77.20
54846;DHT22;53889;50.084;8.646;2022-07-26T04:38:17;24.80;78.70
54846;DHT22;53889;50.084;8.646;2022-07-26T04:40:44;25.10;78.60
54846;DHT22;53889;50.084;8.646;2022-07-26T04:43:11;23.70;77.10
54846;DHT22;53889;50.084;8.646;2022-07-26T04:48:07;22.40;74.50
54846;DHT22;53889;50.084;8.646;2022-07-26T04:50:33;25.20;76.00
54846;DHT22;53889;50.084;8.646;2022-07-26T04:53:04;22.70;73.90
54846;DHT22;53889;50.084;8.646;2022-07-26T04:55:31;22.90;73.30
54846;DHT22;53889;50.084;8.646;2022-07-26T04:57:58;23.10;72.80
54846;DHT22;53889;50.084;8.646;2022-07-26T05:00:25;23.00;72.60
54846;DHT22;53889;50.084;8.646;2022-07-26T05:02:53;23.00;72.80
54846;DHT22;53889;50.084;8.646;2022-07-26T05:05:22;23.10;72.10
54846;DHT22;53889;50.084;8.646;2022-07-26T05:07:51;23.30;72.10
54846;DHT22;53889;50.084;8.646;2022-07-26T05:10:19;26.20;74.40
54846;DHT22;53889;50.084;8.646;2022-07-26T05:12:47;24.40;72.10
54846;DHT22;53889;50.084;8.646;2022-07-26T05:15:14;26.00;72.70
54846;DHT22;53889;50.084;8.646;2022-07-26T05:17:42;24.00;70.50
54846;DHT22;53889;50.084;8.646;2022-07-26T05:20:10;24.40;68.80
54846;DHT22;53889;50.084;8.646;2022-07-26T05:22:39;24.30;69.30
54846;DHT22;53889;50.084;8.646;2022-07-26T05:25:06;25.40;69.40
54846;DHT22;53889;50.084;8.646;2022-07-26T05:27:34;24.40;69.40
54846;DHT22;53889;50.084;8.646;2022-07-26T05:30:00;24.10;68.90
54846;DHT22;53889;50.084;8.646;2022-07-26T05:32:27;25.20;68.40
54846;DHT22;53889;50.084;8.646;2022-07-26T05:34:54;25.20;67.70
54846;DHT22;53889;50.084;8.646;2022-07-26T05:37:21;25.20;67.10
54846;DHT22;53889;50.084;8.646;2022-07-26T05:39:49;26.40;68.10
54846;DHT22;53889;50.084;8.646;2022-07-26T05:42:16;25.50;66.80
54846;DHT22;53889;50.084;8.646;2022-07-26T05:44:43;26.30;65.10
54846;DHT22;53889;50.084;8.646;2022-07-26T05:47:10;27.70;64.80
54846;DHT22;53889;50.084;8.646;2022-07-26T05:49:37;26.40;63.70
54846;DHT22;53889;50.084;8.646;2022-07-26T05:52:04;25.90;64.60
54846;DHT22;53889;50.084;8.646;2022-07-26T05:54:31;25.90;64.60
54846;DHT22;53889;50.084;8.646;2022-07-26T05:56:59;26.10;64.40
54846;DHT22;53889;50.084;8.646;2022-07-26T05:59:26;28.50;65.70
54846;DHT22;53889;50.084;8.646;2022-07-26T06:01:53;27.20;65.60
54846;DHT22;53889;50.084;8.646;2022-07-26T06:04:20;25.50;65.20
54846;DHT22;53889;50.084;8.646;2022-07-26T06:06:47;26.40;66.80
54846;DHT22;53889;50.084;8.646;2022-07-26T06:09:14;25.30;66.00
54846;DHT22;53889;50.084;8.646;2022-07-26T06:11:41;28.30;67.00
54846;DHT22;53889;50.084;8.646;2022-07-26T06:14:09;26.70;63.20
54846;DHT22;53889;50.084;8.646;2022-07-26T06:19:03;26.70;62.70
54846;DHT22;53889;50.084;8.646;2022-07-26T06:21:30;26.60;63.30
54846;DHT22;53889;50.084;8.646;2022-07-26T06:23:57;26.70;63.20
54846;DHT22;53889;50.084;8.646;2022-07-26T06:26:24;26.40;63.60
54846;DHT22;53889;50.084;8.646;2022-07-26T06:28:51;26.20;64.40
54846;DHT22;53889;50.084;8.646;2022-07-26T06:31:19;25.50;65.50
54846;DHT22;53889;50.084;8.646;2022-07-26T06:33:46;26.00;63.70
54846;DHT22;53889;50.084;8.646;2022-07-26T06:36:13;24.80;63.90
54846;DHT22;53889;50.084;8.646;2022-07-26T06:38:40;26.90;62.90
54846;DHT22;53889;50.084;8.646;2022-07-26T06:41:07;27.40;61.50
54846;DHT22;53889;50.084;8.646;2022-07-26T06:43:34;28.00;60.40
54846;DHT22;53889;50.084;8.646;2022-07-26T06:46:01;28.20;59.60
54846;DHT22;53889;50.084;8.646;2022-07-26T06:48:29;28.20;60.00
54846;DHT22;53889;50.084;8.646;2022-07-26T06:50:56;29.10;59.50
54846;DHT22;53889;50.084;8.646;2022-07-26T06:53:23;28.30;58.80
54846;DHT22;53889;50.084;8.646;2022-07-26T06:55:50;28.40;59.00
54846;DHT22;53889;50.084;8.646;2022-07-26T06:58:17;28.30;59.20
54846;DHT22;53889;50.084;8.646;2022-07-26T07:00:44;29.10;58.00
54846;DHT22;53889;50.084;8.646;2022-07-26T07:03:11;29.60;57.10
54846;DHT22;53889;50.084;8.646;2022-07-26T07:05:39;30.10;56.50
54846;DHT22;53889;50.084;8.646;2022-07-26T07:08:06;32.70;61.00
54846;DHT22;53889;50.084;8.646;2022-07-26T07:10:33;27.40;59.20
54846;DHT22;53889;50.084;8.646;2022-07-26T07:13:00;27.30;59.80
54846;DHT22;53889;50.084;8.646;2022-07-26T07:15:27;27.70;59.90
54846;DHT22;53889;50.084;8.646;2022-07-26T07:20:21;28.20;58.90
54846;DHT22;53889;50.084;8.646;2022-07-26T07:22:50;30.60;61.30
54846;DHT22;53889;50.084;8.646;2022-07-26T07:25:17;29.60;58.60
54846;DHT22;53889;50.084;8.646;2022-07-26T07:30:13;27.80;59.50
54846;DHT22;53889;50.084;8.646;2022-07-26T07:40:07;29.80;56.20
54846;DHT22;53889;50.084;8.646;2022-07-26T07:42:34;29.80;56.50
54846;DHT22;53889;50.084;8.646;2022-07-26T07:45:01;29.30;56.80
54846;DHT22;53889;50.084;8.646;2022-07-26T07:47:32;27.70;59.50
54846;DHT22;53889;50.084;8.646;2022-07-26T07:50:00;26.30;62.30
54846;DHT22;53889;50.084;8.646;2022-07-26T07:52:27;26.20;63.20
54846;DHT22;53889;50.084;8.646;2022-07-26T07:54:54;27.50;61.30
54846;DHT22;53889;50.084;8.646;2022-07-26T07:57:23;27.90;60.10
54846;DHT22;53889;50.084;8.646;2022-07-26T07:59:50;30.50;60.80
54846;DHT22;53889;50.084;8.646;2022-07-26T08:04:44;27.60;59.80
54846;DHT22;53889;50.084;8.646;2022-07-26T08:09:38;30.30;55.80
54846;DHT22;53889;50.084;8.646;2022-07-26T08:12:05;29.80;57.10
54846;DHT22;53889;50.084;8.646;2022-07-26T08:14:34;31.50;60.10
54846;DHT22;53889;50.084;8.646;2022-07-26T08:21:55;28.00;58.90
54846;DHT22;53889;50.084;8.646;2022-07-26T08:26:50;27.70;59.80
54846;DHT22;53889;50.084;8.646;2022-07-26T08:31:47;28.50;58.40
54846;DHT22;53889;50.084;8.646;2022-07-26T08:39:10;29.50;56.30
54846;DHT22;53889;50.084;8.646;2022-07-26T08:41:37;27.80;58.60
54846;DHT22;53889;50.084;8.646;2022-07-26T08:44:07;28.00;58.70
54846;DHT22;53889;50.084;8.646;2022-07-26T08:46:36;28.00;58.40
54846;DHT22;53889;50.084;8.646;2022-07-26T08:49:06;27.60;59.40
54846;DHT22;53889;50.084;8.646;2022-07-26T08:51:37;28.80;57.80
54846;DHT22;53889;50.084;8.646;2022-07-26T08:54:05;29.60;56.00
54846;DHT22;53889;50.084;8.646;2022-07-26T08:56:33;30.80;54.10
54846;DHT22;53889;50.084;8.646;2022-07-26T08:59:05;29.70;54.50
54846;DHT22;53889;50.084;8.646;2022-07-26T09:01:52;30.60;57.20
54846;DHT22;53889;50.084;8.646;2022-07-26T09:04:22;28.30;56.80
54846;DHT22;53889;50.084;8.646;2022-07-26T09:07:00;27.50;58.50
54846;DHT22;53889;50.084;8.646;2022-07-26T09:09:28;27.80;58.60
54846;DHT22;53889;50.084;8.646;2022-07-26T09:11:56;30.80;59.60
54846;DHT22;53889;50.084;8.646;2022-07-26T09:14:34;28.40;57.10
54846;DHT22;53889;50.084;8.646;2022-07-26T09:17:02;29.30;56.20
54846;DHT22;53889;50.084;8.646;2022-07-26T09:19:32;29.50;55.70
54846;DHT22;53889;50.084;8.646;2022-07-26T09:22:07;29.10;55.20
54846;DHT22;53889;50.084;8.646;2022-07-26T09:24:37;27.90;56.30
54846;DHT22;53889;50.084;8.646;2022-07-26T09:27:07;28.20;56.80
54846;DHT22;53889;50.084;8.646;2022-07-26T09:29:47;29.40;55.50
54846;DHT22;53889;50.084;8.646;2022-07-26T09:32:16;29.80;53.90
54846;DHT22;53889;50.084;8.646;2022-07-26T09:34:49;29.80;54.70
54846;DHT22;53889;50.084;8.646;2022-07-26T09:39:54;28.80;54.90
54846;DHT22;53889;50.084;8.646;2022-07-26T09:42:22;28.30;56.40
54846;DHT22;53889;50.084;8.646;2022-07-26T09:44:49;27.80;56.30
54846;DHT22;53889;50.084;8.646;2022-07-26T09:47:17;28.00;56.80
54846;DHT22;53889;50.084;8.646;2022-07-26T09:49:46;26.90;57.50
54846;DHT22;53889;50.084;8.646;2022-07-26T09:52:14;27.30;57.50
54846;DHT22;53889;50.084;8.646;2022-07-26T09:54:42;28.70;55.10
54846;DHT22;53889;50.084;8.646;2022-07-26T09:57:13;29.80;53.20
54846;DHT22;53889;50.084;8.646;2022-07-26T09:59:41;30.70;52.10
54846;DHT22;53889;50.084;8.646;2022-07-26T10:02:07;33.40;52.10
54846;DHT22;53889;50.084;8.646;2022-07-26T10:04:34;32.20;49.60
54846;DHT22;53889;50.084;8.646;2022-07-26T10:07:03;31.10;50.80
54846;DHT22;53889;50.084;8.646;2022-07-26T10:09:37;30.50;51.10
54846;DHT22;53889;50.084;8.646;2022-07-26T10:12:05;33.20;52.40
54846;DHT22;53889;50.084;8.646;2022-07-26T10:14:38;31.40;50.00
54846;DHT22;53889;50.084;8.646;2022-07-26T10:17:37;35.10;49.90
54846;DHT22;53889;50.084;8.646;2022-07-26T10:20:06;32.20;50.00
54846;DHT22;53889;50.084;8.646;2022-07-26T10:22:42;31.00;49.90
54846;DHT22;53889;50.084;8.646;2022-07-26T10:25:45;29.50;52.30
54846;DHT22;53889;50.084;8.646;2022-07-26T10:28:34;28.70;53.80
54846;DHT22;53889;50.084;8.646;2022-07-26T10:31:26;28.10;55.50
54846;DHT22;53889;50.084;8.646;2022-07-26T10:33:56;27.80;56.70
54846;DHT22;53889;50.084;8.646;2022-07-26T10:36:25;27.90;57.50
54846;DHT22;53889;50.084;8.646;2022-07-26T10:39:12;27.50;57.50
54846;DHT22;53889;50.084;8.646;2022-07-26T10:41:41;27.60;57.40
54846;DHT22;53889;50.084;8.646;2022-07-26T10:44:19;27.50;56.40
54846;DHT22;53889;50.084;8.646;2022-07-26T10:46:59;27.70;56.10
54846;DHT22;53889;50.084;8.646;2022-07-26T10:49:29;29.40;53.80
54846;DHT22;53889;50.084;8.646;2022-07-26T10:52:15;30.60;52.20
54846;DHT22;53889;50.084;8.646;2022-07-26T10:55:06;31.60;51.30
54846;DHT22;53889;50.084;8.646;2022-07-26T10:57:35;31.10;50.70
54846;DHT22;53889;50.084;8.646;2022-07-26T11:00:11;31.00;51.10
54846;DHT22;53889;50.084;8.646;2022-07-26T11:05:09;31.40;50.60
54846;DHT22;53889;50.084;8.646;2022-07-26T11:07:49;30.00;53.20
54846;DHT22;53889;50.084;8.646;2022-07-26T11:10:21;28.70;54.70
54846;DHT22;53889;50.084;8.646;2022-07-26T11:12:56;28.40;55.10
54846;DHT22;53889;50.084;8.646;2022-07-26T11:15:23;28.00;55.90
54846;DHT22;53889;50.084;8.646;2022-07-26T11:17:50;28.60;55.60
54846;DHT22;53889;50.084;8.646;2022-07-26T11:20:24;30.10;52.80
54846;DHT22;53889;50.084;8.646;2022-07-26T11:22:51;29.60;50.50
54846;DHT22;53889;50.084;8.646;2022-07-26T11:25:21;30.80;51.20
54846;DHT22;53889;50.084;8.646;2022-07-26T11:27:58;31.40;53.30
54846;DHT22;53889;50.084;8.646;2022-07-26T11:30:25;29.70;53.30
54846;DHT22;53889;50.084;8.646;2022-07-26T11:32:52;28.80;55.00
54846;DHT22;53889;50.084;8.646;2022-07-26T11:35:20;28.90;54.70
54846;DHT22;53889;50.084;8.646;2022-07-26T11:37:52;29.60;51.70
54846;DHT22;53889;50.084;8.646;2022-07-26T11:40:41;30.80;49.00
54846;DHT22;53889;50.084;8.646;2022-07-26T11:45:37;31.00;48.70
54846;DHT22;53889;50.084;8.646;2022-07-26T11:48:05;31.20;49.50
54846;DHT22;53889;50.084;8.646;2022-07-26T11:50:34;32.40;50.30
54846;DHT22;53889;50.084;8.646;2022-07-26T11:53:00;30.90;50.90
54846;DHT22;53889;50.084;8.646;2022-07-26T11:55:28;29.80;53.00
54846;DHT22;53889;50.084;8.646;2022-07-26T11:58:03;29.80;53.30
54846;DHT22;53889;50.084;8.646;2022-07-26T12:00:30;29.60;54.50
54846;DHT22;53889;50.084;8.646;2022-07-26T12:02:58;28.20;55.90
54846;DHT22;53889;50.084;8.646;2022-07-26T12:05:25;28.70;56.70
54846;DHT22;53889;50.084;8.646;2022-07-26T12:07:54;27.70;56.60
54846;DHT22;53889;50.084;8.646;2022-07-26T12:10:21;29.00;57.90
54846;DHT22;53889;50.084;8.646;2022-07-26T12:12:48;27.60;56.70
54846;DHT22;53889;50.084;8.646;2022-07-26T12:15:16;27.80;56.80
54846;DHT22;53889;50.084;8.646;2022-07-26T12:17:57;27.60;56.10
54846;DHT22;53889;50.084;8.646;2022-07-26T12:20:24;29.40;57.90
54846;DHT22;53889;50.084;8.646;2022-07-26T12:22:53;27.20;57.10
54846;DHT22;53889;50.084;8.646;2022-07-26T12:25:24;27.30;58.70
54846;DHT22;53889;50.084;8.646;2022-07-26T12:27:51;27.70;56.20
54846;DHT22;53889;50.084;8.646;2022-07-26T12:32:48;27.70;56.20
54846;DHT22;53889;50.084;8.646;2022-07-26T12:35:26;28.40;55.50
54846;DHT22;53889;50.084;8.646;2022-07-26T12:37:54;29.60;54.30
54846;DHT22;53889;50.084;8.646;2022-07-26T12:40:22;31.00;52.20
54846;DHT22;53889;50.084;8.646;2022-07-26T12:42:54;34.40;52.40
54846;DHT22;53889;50.084;8.646;2022-07-26T12:45:25;30.50;50.10
54846;DHT22;53889;50.084;8.646;2022-07-26T12:47:54;32.30;49.00
54846;DHT22;53889;50.084;8.646;2022-07-26T12:50:26;31.60;48.90
54846;DHT22;53889;50.084;8.646;2022-07-26T12:52:58;31.50;49.40
54846;DHT22;53889;50.084;8.646;2022-07-26T13:02:49;29.20;53.10
54846;DHT22;53889;50.084;8.646;2022-07-26T13:05:19;30.70;57.20
54846;DHT22;53889;50.084;8.646;2022-07-26T13:07:46;28.30;55.30
54846;DHT22;53889;50.084;8.646;2022-07-26T13:10:12;27.70;56.50
54846;DHT22;53889;50.084;8.646;2022-07-26T13:12:39;27.60;56.60
54846;DHT22;53889;50.084;8.646;2022-07-26T13:15:07;27.90;56.30
54846;DHT22;53889;50.084;8.646;2022-07-26T13:17:34;28.60;54.40
54846;DHT22;53889;50.084;8.646;2022-07-26T13:20:02;29.00;52.40
54846;DHT22;53889;50.084;8.646;2022-07-26T13:22:29;29.30;52.50
54846;DHT22;53889;50.084;8.646;2022-07-26T13:24:56;29.40;52.80
54846;DHT22;53889;50.084;8.646;2022-07-26T13:27:23;29.20;52.70
54846;DHT22;53889;50.084;8.646;2022-07-26T13:29:49;29.40;53.20
54846;DHT22;53889;50.084;8.646;2022-07-26T13:32:16;29.40;53.30
54846;DHT22;53889;50.084;8.646;2022-07-26T13:34:43;28.80;54.30
54846;DHT22;53889;50.084;8.646;2022-07-26T13:37:11;28.90;54.50
54846;DHT22;53889;50.084;8.646;2022-07-26T13:39:38;28.60;54.80
54846;DHT22;53889;50.084;8.646;2022-07-26T13:42:05;28.40;54.70
54846;DHT22;53889;50.084;8.646;2022-07-26T13:44:32;28.10;55.20
54846;DHT22;53889;50.084;8.646;2022-07-26T13:46:58;28.20;55.30
54846;DHT22;53889;50.084;8.646;2022-07-26T13:49:26;28.50;54.00
54846;DHT22;53889;50.084;8.646;2022-07-26T13:51:54;28.70;53.80
54846;DHT22;53889;50.084;8.646;2022-07-26T13:54:26;28.90;53.10
54846;DHT22;53889;50.084;8.646;2022-07-26T13:56:54;28.90;53.10
54846;DHT22;53889;50.084;8.646;2022-07-26T13:59:21;29.10;53.00
54846;DHT22;53889;50.084;8.646;2022-07-26T14:01:48;29.10;53.30
54846;DHT22;53889;50.084;8.646;2022-07-26T14:04:15;29.40;53.00
54846;DHT22;53889;50.084;8.646;2022-07-26T14:06:42;29.10;53.20
54846;DHT22;53889;50.084;8.646;2022-07-26T14:09:09;29.10;53.30
54846;DHT22;53889;50.084;8.646;2022-07-26T14:11:38;28.40;53.60
54846;DHT22;53889;50.084;8.646;2022-07-26T14:14:05;28.60;53.90
54846;DHT22;53889;50.084;8.646;2022-07-26T14:16:32;29.10;53.10
54846;DHT22;53889;50.084;8.646;2022-07-26T14:18:59;29.30;52.50
54846;DHT22;53889;50.084;8.646;2022-07-26T14:21:26;28.80;52.80
54846;DHT22;53889;50.084;8.646;2022-07-26T14:23:54;29.30;52.70
54846;DHT22;53889;50.084;8.646;2022-07-26T14:26:21;30.20;52.70
54846;DHT22;53889;50.084;8.646;2022-07-26T14:28:49;29.60;51.80
54846;DHT22;53889;50.084;8.646;2022-07-26T14:31:16;29.20;51.90
54846;DHT22;53889;50.084;8.646;2022-07-26T14:33:43;28.90;52.00
54846;DHT22;53889;50.084;8.646;2022-07-26T14:36:10;28.90;52.50
54846;DHT22;53889;50.084;8.646;2022-07-26T14:38:38;28.70;52.70
54846;DHT22;53889;50.084;8.646;2022-07-26T14:41:05;28.50;53.10
54846;DHT22;53889;50.084;8.646;2022-07-26T14:43:32;28.70;52.90
54846;DHT22;53889;50.084;8.646;2022-07-26T14:46:00;29.10;52.90
54846;DHT22;53889;50.084;8.646;2022-07-26T14:48:27;29.30;52.50
54846;DHT22;53889;50.084;8.646;2022-07-26T14:50:54;29.10;52.60
54846;DHT22;53889;50.084;8.646;2022-07-26T14:53:21;28.50;53.10
54846;DHT22;53889;50.084;8.646;2022-07-26T14:55:49;28.50;53.40
54846;DHT22;53889;50.084;8.646;2022-07-26T14:58:16;29.10;53.10
54846;DHT22;53889;50.084;8.646;2022-07-26T15:00:43;28.90;53.20
54846;DHT22;53889;50.084;8.646;2022-07-26T15:03:11;28.90;52.60
54846;DHT22;53889;50.084;8.646;2022-07-26T15:05:39;29.10;52.60
54846;DHT22;53889;50.084;8.646;2022-07-26T15:08:05;29.00;52.70
54846;DHT22;53889;50.084;8.646;2022-07-26T15:10:32;28.70;53.00
54846;DHT22;53889;50.084;8.646;2022-07-26T15:13:00;28.60;53.20
54846;DHT22;53889;50.084;8.646;2022-07-26T15:15:28;28.30;52.80
54846;DHT22;53889;50.084;8.646;2022-07-26T15:17:55;28.30;53.20
54846;DHT22;53889;50.084;8.646;2022-07-26T15:20:23;28.20;52.90
54846;DHT22;53889;50.084;8.646;2022-07-26T15:22:50;28.50;53.00
54846;DHT22;53889;50.084;8.646;2022-07-26T15:25:20;28.60;53.50
54846;DHT22;53889;50.084;8.646;2022-07-26T15:27:47;29.00;54.50
54846;DHT22;53889;50.084;8.646;2022-07-26T15:30:13;28.60;54.60
54846;DHT22;53889;50.084;8.646;2022-07-26T15:32:41;28.60;54.60
54846;DHT22;53889;50.084;8.646;2022-07-26T15:35:08;28.40;53.70
54846;DHT22;53889;50.084;8.646;2022-07-26T15:37:37;28.20;53.10
54846;DHT22;53889;50.084;8.646;2022-07-26T15:40:05;27.90;53.70
54846;DHT22;53889;50.084;8.646;2022-07-26T15:42:32;27.60;53.90
54846;DHT22;53889;50.084;8.646;2022-07-26T15:44:59;27.50;54.10
54846;DHT22;53889;50.084;8.646;2022-07-26T15:47:26;27.70;53.80
54846;DHT22;53889;50.084;8.646;2022-07-26T15:49:53;28.00;53.60
54846;DHT22;53889;50.084;8.646;2022-07-26T15:52:19;28.10;54.00
54846;DHT22;53889;50.084;8.646;2022-07-26T15:54:48;28.00;53.70
54846;DHT22;53889;50.084;8.646;2022-07-26T15:57:14;27.80;54.30
54846;DHT22;53889;50.084;8.646;2022-07-26T15:59:42;27.90;53.60
54846;DHT22;53889;50.084;8.646;2022-07-26T16:02:08;27.70;53.50
54846;DHT22;53889;50.084;8.646;2022-07-26T16:04:35;27.80;53.60
54846;DHT22;53889;50.084;8.646;2022-07-26T16:07:02;27.70;53.30
54846;DHT22;53889;50.084;8.646;2022-07-26T16:09:29;30.50;54.60
54846;DHT22;53889;50.084;8.646;2022-07-26T16:11:57;27.40;52.90
54846;DHT22;53889;50.084;8.646;2022-07-26T16:14:24;27.40;53.40
54846;DHT22;53889;50.084;8.646;2022-07-26T16:16:50;27.60;53.40
54846;DHT22;53889;50.084;8.646;2022-07-26T16:19:17;30.10;54.90
54846;DHT22;53889;50.084;8.646;2022-07-26T16:21:44;27.50;53.10
54846;DHT22;53889;50.084;8.646;2022-07-26T16:24:10;27.50;53.30
54846;DHT22;53889;50.084;8.646;2022-07-26T16:26:37;27.70;52.90
54846;DHT22;53889;50.084;8.646;2022-07-26T16:29:06;27.90;52.40
54846;DHT22;53889;50.084;8.646;2022-07-26T16:31:33;27.80;52.60
54846;DHT22;53889;50.084;8.646;2022-07-26T16:34:01;27.90;52.40
54846;DHT22;53889;50.084;8.646;2022-07-26T16:36:27;28.00;51.90
54846;DHT22;53889;50.084;8.646;2022-07-26T16:38:54;28.00;52.10
54846;DHT22;53889;50.084;8.646;2022-07-26T16:41:21;27.90;52.20
54846;DHT22;53889;50.084;8.646;2022-07-26T16:43:48;27.80;52.60
54846;DHT22;53889;50.084;8.646;2022-07-26T16:46:16;27.70;53.00
54846;DHT22;53889;50.084;8.646;2022-07-26T16:48:43;29.80;54.70
54846;DHT22;53889;50.084;8.646;2022-07-26T16:51:10;28.00;52.70
54846;DHT22;53889;50.084;8.646;2022-07-26T16:53:38;27.90;52.60
54846;DHT22;53889;50.084;8.646;2022-07-26T16:56:05;27.60;52.50
54846;DHT22;53889;50.084;8.646;2022-07-26T16:58:32;27.80;52.80
54846;DHT22;53889;50.084;8.646;2022-07-26T17:00:58;27.80;53.00
54846;DHT22;53889;50.084;8.646;2022-07-26T17:03:26;27.90;53.10
54846;DHT22;53889;50.084;8.646;2022-07-26T17:05:53;28.00;53.10
54846;DHT22;53889;50.084;8.646;2022-07-26T17:08:20;28.20;53.20
54846;DHT22;53889;50.084;8.646;2022-07-26T17:10:49;28.30;52.60
54846;DHT22;53889;50.084;8.646;2022-07-26T17:13:15;28.20;52.60
54846;DHT22;53889;50.084;8.646;2022-07-26T17:15:42;28.30;51.80
54846;DHT22;53889;50.084;8.646;2022-07-26T17:18:09;28.30;52.30
54846;DHT22;53889;50.084;8.646;2022-07-26T17:20:37;28.20;52.70
54846;DHT22;53889;50.084;8.646;2022-07-26T17:23:05;28.30;52.60
54846;DHT22;53889;50.084;8.646;2022-07-26T17:25:31;28.20;54.90
54846;DHT22;53889;50.084;8.646;2022-07-26T17:27:58;28.10;55.30
54846;DHT22;53889;50.084;8.646;2022-07-26T17:30:25;28.20;55.60
54846;DHT22;53889;50.084;8.646;2022-07-26T17:32:52;28.20;56.00
54846;DHT22;53889;50.084;8.646;2022-07-26T17:35:19;28.10;56.30
54846;DHT22;53889;50.084;8.646;2022-07-26T17:37:47;27.80;56.80
54846;DHT22;53889;50.084;8.646;2022-07-26T17:40:13;27.70;57.10
54846;DHT22;53889;50.084;8.646;2022-07-26T17:42:41;27.50;57.40
54846;DHT22;53889;50.084;8.646;2022-07-26T17:45:08;28.10;58.10
54846;DHT22;53889;50.084;8.646;2022-07-26T17:47:35;27.40;57.90
54846;DHT22;53889;50.084;8.646;2022-07-26T17:50:04;27.20;58.30
54846;DHT22;53889;50.084;8.646;2022-07-26T17:52:31;27.20;58.50
54846;DHT22;53889;50.084;8.646;2022-07-26T17:54:59;27.10;58.60
54846;DHT22;53889;50.084;8.646;2022-07-26T17:57:27;27.00;58.60
54846;DHT22;53889;50.084;8.646;2022-07-26T17:59:53;27.00;58.70